sensor_id;sensor_type;location;lat;lon;timestamp;pressure;altitude;pressure_sealevel;temperature;humidity
39267;BME280;24967;51.154;13.812;2023-01-28T00:00:00;100314.94;;;2.28;87.03
39267;BME280;24967;51.154;13.812;2023-01-28T00:02:28;100317.72;;;2.25;86.63
39267;BME280;24967;51.154;13.812;2023-01-28T00:04:54;100314.97;;;2.44;85.74
39267;BME280;24967;51.154;13.812;2023-01-28T00:07:21;100316.28;;;2.52;85.14
39267;BME280;24967;51.154;13.812;2023-01-28T00:09:48;100315.97;;;2.41;84.74
39267;BME280;24967;51.154;13.812;2023-01-28T00:12:14;100312.63;;;2.22;85.33
39267;BME280;24967;51.154;13.812;2023-01-28T00:14:40;100312.78;;;2.19;84.93
39267;BME280;24967;51.154;13.812;2023-01-28T00:17:07;100317.78;;;2.23;85.10
39267;BME280;24967;51.154;13.812;2023-01-28T00:19:34;100317.03;;;2.21;84.83
39267;BME280;24967;51.154;13.812;2023-01-28T00:22:01;100323.03;;;2.23;84.75
39267;BME280;24967;51.154;13.812;2023-01-28T00:24:28;100321.88;;;2.29;84.75
39267;BME280;24967;51.154;13.812;2023-01-28T00:26:55;100326.03;;;2.33;84.09
39267;BME280;24967;51.154;13.812;2023-01-28T00:29:21;100324.53;;;2.45;83.55
39267;BME280;24967;51.154;13.812;2023-01-28T00:31:47;100323.25;;;2.36;83.55
39267;BME280;24967;51.154;13.812;2023-01-28T00:34:14;100327.88;;;2.31;83.79
39267;BME280;24967;51.154;13.812;2023-01-28T00:36:41;100319.22;;;2.46;83.83
39267;BME280;24967;51.154;13.812;2023-01-28T00:39:10;100323.63;;;2.46;83.79
39267;BME280;24967;51.154;13.812;2023-01-28T00:41:38;100324.38;;;2.48;82.91
39267;BME280;24967;51.154;13.812;2023-01-28T00:44:04;100333.13;;;2.48;83.32
39267;BME280;24967;51.154;13.812;2023-01-28T00:46:31;100324.47;;;2.46;82.94
39267;BME280;24967;51.154;13.812;2023-01-28T00:48:57;100322.19;;;2.56;82.84
39267;BME280;24967;51.154;13.812;2023-01-28T00:51:24;100334.78;;;2.67;83.29
39267;BME280;24967;51.154;13.812;2023-01-28T00:53:51;100324.78;;;2.73;82.78
39267;BME280;24967;51.154;13.812;2023-01-28T00:56:18;100324.03;;;2.71;81.93
39267;BME280;24967;51.154;13.812;2023-01-28T00:58:44;100325.47;;;2.77;82.18
39267;BME280;24967;51.154;13.812;2023-01-28T01:01:12;100329.38;;;2.70;81.74
39267;BME280;24967;51.154;13.812;2023-01-28T01:03:39;100331.47;;;2.63;81.68
39267;BME280;24967;51.154;13.812;2023-01-28T01:06:06;100327.47;;;2.72;81.44
39267;BME280;24967;51.154;13.812;2023-01-28T01:08:32;100324.38;;;2.48;81.33
39267;BME280;24967;51.154;13.812;2023-01-28T01:11:05;100331.56;;;2.44;82.36
39267;BME280;24967;51.154;13.812;2023-01-28T01:13:32;100329.56;;;2.32;82.94
39267;BME280;24967;51.154;13.812;2023-01-28T01:16:00;100323.88;;;2.24;83.02
39267;BME280;24967;51.154;13.812;2023-01-28T01:18:26;100324.25;;;2.34;81.95
39267;BME280;24967;51.154;13.812;2023-01-28T01:20:53;100327.03;;;2.31;82.48
39267;BME280;24967;51.154;13.812;2023-01-28T01:23:23;100328.91;;;2.11;82.19
39267;BME280;24967;51.154;13.812;2023-01-28T01:25:49;100322.72;;;1.95;83.22
39267;BME280;24967;51.154;13.812;2023-01-28T01:28:17;100333.22;;;1.95;83.47
39267;BME280;24967;51.154;13.812;2023-01-28T01:30:44;100336.53;;;1.98;83.64
39267;BME280;24967;51.154;13.812;2023-01-28T01:33:11;100335.69;;;2.15;82.78
39267;BME280;24967;51.154;13.812;2023-01-28T01:35:37;100332.91;;;2.18;82.70
39267;BME280;24967;51.154;13.812;2023-01-28T01:38:04;100340.84;;;2.17;82.72
39267;BME280;24967;51.154;13.812;2023-01-28T01:40:30;100335.44;;;2.02;83.43
39267;BME280;24967;51.154;13.812;2023-01-28T01:42:56;100335.00;;;1.94;83.99
39267;BME280;24967;51.154;13.812;2023-01-28T01:45:24;100332.44;;;1.93;84.04
39267;BME280;24967;51.154;13.812;2023-01-28T01:47:53;100338.47;;;2.12;83.53
39267;BME280;24967;51.154;13.812;2023-01-28T01:50:23;100331.81;;;2.22;82.78
39267;BME280;24967;51.154;13.812;2023-01-28T01:52:54;100335.75;;;2.31;82.17
39267;BME280;24967;51.154;13.812;2023-01-28T01:55:22;100340.53;;;2.23;82.93
39267;BME280;24967;51.154;13.812;2023-01-28T01:57:50;100335.75;;;2.14;82.89
39267;BME280;24967;51.154;13.812;2023-01-28T02:00:17;100340.84;;;2.17;83.25
39267;BME280;24967;51.154;13.812;2023-01-28T02:02:46;100330.72;;;2.26;82.61
39267;BME280;24967;51.154;13.812;2023-01-28T02:05:14;100333.13;;;2.31;82.45
39267;BME280;24967;51.154;13.812;2023-01-28T02:07:41;100332.72;;;2.39;82.35
39267;BME280;24967;51.154;13.812;2023-01-28T02:10:08;100333.97;;;2.14;82.92
39267;BME280;24967;51.154;13.812;2023-01-28T02:12:35;100324.66;;;2.26;82.43
39267;BME280;24967;51.154;13.812;2023-01-28T02:15:03;100326.47;;;2.24;82.47
39267;BME280;24967;51.154;13.812;2023-01-28T02:17:31;100329.72;;;2.29;82.42
39267;BME280;24967;51.154;13.812;2023-01-28T02:19:59;100329.53;;;2.16;83.20
39267;BME280;24967;51.154;13.812;2023-01-28T02:22:29;100328.28;;;2.23;82.85
39267;BME280;24967;51.154;13.812;2023-01-28T02:25:07;100325.66;;;2.23;83.01
39267;BME280;24967;51.154;13.812;2023-01-28T02:27:46;100320.56;;;2.20;83.09
39267;BME280;24967;51.154;13.812;2023-01-28T02:30:14;100326.72;;;2.37;82.55
39267;BME280;24967;51.154;13.812;2023-01-28T02:32:45;100332.97;;;1.99;82.92
39267;BME280;24967;51.154;13.812;2023-01-28T02:35:14;100335.81;;;1.77;84.42
39267;BME280;24967;51.154;13.812;2023-01-28T02:37:45;100335.00;;;1.94;83.96
39267;BME280;24967;51.154;13.812;2023-01-28T02:40:13;100342.94;;;1.93;84.61
39267;BME280;24967;51.154;13.812;2023-01-28T02:42:42;100340.56;;;1.88;83.37
39267;BME280;24967;51.154;13.812;2023-01-28T02:45:13;100338.84;;;1.87;84.20
39267;BME280;24967;51.154;13.812;2023-01-28T02:47:41;100349.41;;;1.86;83.50
39267;BME280;24967;51.154;13.812;2023-01-28T02:50:22;100347.50;;;1.53;84.59
39267;BME280;24967;51.154;13.812;2023-01-28T02:52:52;100347.84;;;1.64;84.45
39267;BME280;24967;51.154;13.812;2023-01-28T02:55:40;100347.03;;;1.98;84.16
39267;BME280;24967;51.154;13.812;2023-01-28T02:58:09;100348.97;;;1.95;83.67
39267;BME280;24967;51.154;13.812;2023-01-28T03:00:43;100350.28;;;2.03;82.86
39267;BME280;24967;51.154;13.812;2023-01-28T03:03:13;100349.56;;;2.17;82.71
39267;BME280;24967;51.154;13.812;2023-01-28T03:05:41;100358.59;;;2.29;81.67
39267;BME280;24967;51.154;13.812;2023-01-28T03:08:29;100357.69;;;2.30;81.33
39267;BME280;24967;51.154;13.812;2023-01-28T03:11:13;100352.66;;;2.08;81.54
39267;BME280;24967;51.154;13.812;2023-01-28T03:13:57;100353.53;;;1.72;82.89
39267;BME280;24967;51.154;13.812;2023-01-28T03:16:43;100347.88;;;1.99;82.40
39267;BME280;24967;51.154;13.812;2023-01-28T03:19:26;100357.28;;;2.20;81.49
39267;BME280;24967;51.154;13.812;2023-01-28T03:22:10;100348.25;;;1.91;81.84
39267;BME280;24967;51.154;13.812;2023-01-28T03:24:54;100362.13;;;1.93;81.57
39267;BME280;24967;51.154;13.812;2023-01-28T03:27:39;100357.38;;;2.19;81.94
39267;BME280;24967;51.154;13.812;2023-01-28T03:30:27;100357.66;;;1.95;81.58
39267;BME280;24967;51.154;13.812;2023-01-28T03:33:14;100360.81;;;2.02;80.29
39267;BME280;24967;51.154;13.812;2023-01-28T03:35:59;100366.63;;;2.09;80.01
39267;BME280;24967;51.154;13.812;2023-01-28T03:38:44;100377.75;;;1.77;81.25
39267;BME280;24967;51.154;13.812;2023-01-28T03:41:18;100368.81;;;1.81;80.14
39267;BME280;24967;51.154;13.812;2023-01-28T03:43:45;100372.41;;;1.98;80.45
39267;BME280;24967;51.154;13.812;2023-01-28T03:46:11;100374.34;;;1.94;79.34
39267;BME280;24967;51.154;13.812;2023-01-28T03:48:39;100378.78;;;1.92;79.06
39267;BME280;24967;51.154;13.812;2023-01-28T03:51:05;100380.47;;;1.76;79.24
39267;BME280;24967;51.154;13.812;2023-01-28T03:53:32;100387.81;;;1.87;78.93
39267;BME280;24967;51.154;13.812;2023-01-28T03:55:58;100383.50;;;1.86;79.18
39267;BME280;24967;51.154;13.812;2023-01-28T03:58:24;100390.81;;;1.79;78.40
39267;BME280;24967;51.154;13.812;2023-01-28T04:01:10;100400.81;;;1.71;78.74
39267;BME280;24967;51.154;13.812;2023-01-28T04:03:36;100392.84;;;1.72;77.99
39267;BME280;24967;51.154;13.812;2023-01-28T04:06:06;100396.88;;;1.43;77.47
39267;BME280;24967;51.154;13.812;2023-01-28T04:08:33;100397.44;;;1.50;78.40
39267;BME280;24967;51.154;13.812;2023-01-28T04:10:59;100398.13;;;1.53;78.26
39267;BME280;24967;51.154;13.812;2023-01-28T04:13:39;100393.69;;;1.55;77.75
39267;BME280;24967;51.154;13.812;2023-01-28T04:16:06;100404.94;;;1.57;77.80
39267;BME280;24967;51.154;13.812;2023-01-28T04:18:32;100397.44;;;1.31;77.41
39267;BME280;24967;51.154;13.812;2023-01-28T04:20:58;100400.63;;;1.37;77.30
39267;BME280;24967;51.154;13.812;2023-01-28T04:23:26;100411.75;;;1.43;77.32
39267;BME280;24967;51.154;13.812;2023-01-28T04:25:53;100414.16;;;1.28;76.44
39267;BME280;24967;51.154;13.812;2023-01-28T04:28:20;100410.25;;;1.37;75.77
39267;BME280;24967;51.154;13.812;2023-01-28T04:30:46;100408.69;;;1.14;75.09
39267;BME280;24967;51.154;13.812;2023-01-28T04:33:13;100413.34;;;0.88;75.85
39267;BME280;24967;51.154;13.812;2023-01-28T04:35:39;100419.28;;;0.72;76.10
39267;BME280;24967;51.154;13.812;2023-01-28T04:38:06;100414.06;;;0.51;76.49
39267;BME280;24967;51.154;13.812;2023-01-28T04:40:33;100420.88;;;0.55;77.27
39267;BME280;24967;51.154;13.812;2023-01-28T04:43:00;100421.66;;;0.57;76.93
39267;BME280;24967;51.154;13.812;2023-01-28T04:45:26;100417.41;;;0.55;76.93
39267;BME280;24967;51.154;13.812;2023-01-28T04:47:53;100421.50;;;0.81;76.83
39267;BME280;24967;51.154;13.812;2023-01-28T04:50:19;100412.97;;;0.96;76.17
39267;BME280;24967;51.154;13.812;2023-01-28T04:52:45;100412.22;;;0.94;75.59
39267;BME280;24967;51.154;13.812;2023-01-28T04:55:12;100419.47;;;0.87;76.21
39267;BME280;24967;51.154;13.812;2023-01-28T04:57:40;100427.84;;;0.96;75.94
39267;BME280;24967;51.154;13.812;2023-01-28T05:00:06;100421.50;;;1.01;76.37
39267;BME280;24967;51.154;13.812;2023-01-28T05:02:33;100429.63;;;0.95;75.74
39267;BME280;24967;51.154;13.812;2023-01-28T05:04:59;100443.59;;;0.55;76.53
39267;BME280;24967;51.154;13.812;2023-01-28T05:07:28;100438.50;;;0.30;76.98
39267;BME280;24967;51.154;13.812;2023-01-28T05:09:55;100438.44;;;-0.11;77.04
39267;BME280;24967;51.154;13.812;2023-01-28T05:12:21;100444.78;;;-0.40;78.32
39267;BME280;24967;51.154;13.812;2023-01-28T05:14:49;100440.16;;;-0.56;79.21
39267;BME280;24967;51.154;13.812;2023-01-28T05:17:15;100447.75;;;-0.73;79.78
39267;BME280;24967;51.154;13.812;2023-01-28T05:19:41;100440.03;;;-0.53;79.01
39267;BME280;24967;51.154;13.812;2023-01-28T05:22:08;100451.66;;;-0.38;79.24
39267;BME280;24967;51.154;13.812;2023-01-28T05:24:35;100449.63;;;-0.30;78.87
39267;BME280;24967;51.154;13.812;2023-01-28T05:27:01;100452.88;;;-0.25;78.84
39267;BME280;24967;51.154;13.812;2023-01-28T05:29:27;100446.22;;;-0.10;78.76
39267;BME280;24967;51.154;13.812;2023-01-28T05:31:55;100447.84;;;-0.07;77.76
39267;BME280;24967;51.154;13.812;2023-01-28T05:34:21;100451.25;;;-0.05;78.03
39267;BME280;24967;51.154;13.812;2023-01-28T05:36:48;100454.66;;;-0.03;77.92
39267;BME280;24967;51.154;13.812;2023-01-28T05:39:14;100457.34;;;-0.05;77.51
39267;BME280;24967;51.154;13.812;2023-01-28T05:41:40;100468.97;;;-0.12;77.99
39267;BME280;24967;51.154;13.812;2023-01-28T05:44:07;100464.97;;;-0.22;78.15
39267;BME280;24967;51.154;13.812;2023-01-28T05:46:33;100473.78;;;-0.25;77.47
39267;BME280;24967;51.154;13.812;2023-01-28T05:49:01;100477.03;;;0.04;77.12
39267;BME280;24967;51.154;13.812;2023-01-28T05:51:27;100481.38;;;-0.18;76.73
39267;BME280;24967;51.154;13.812;2023-01-28T05:53:53;100483.41;;;-0.25;77.08
39267;BME280;24967;51.154;13.812;2023-01-28T05:56:20;100486.41;;;0.10;77.17
39267;BME280;24967;51.154;13.812;2023-01-28T05:58:46;100485.38;;;0.14;76.64
39267;BME280;24967;51.154;13.812;2023-01-28T06:01:12;100482.06;;;-0.13;75.95
39267;BME280;24967;51.154;13.812;2023-01-28T06:03:39;100489.22;;;-0.18;76.34
39267;BME280;24967;51.154;13.812;2023-01-28T06:06:06;100493.09;;;-0.05;76.35
39267;BME280;24967;51.154;13.812;2023-01-28T06:08:33;100495.47;;;-0.21;76.20
39267;BME280;24967;51.154;13.812;2023-01-28T06:11:01;100494.19;;;-0.34;76.57
39267;BME280;24967;51.154;13.812;2023-01-28T06:13:27;100490.63;;;-0.10;76.45
39267;BME280;24967;51.154;13.812;2023-01-28T06:15:53;100496.53;;;-0.50;76.72
39267;BME280;24967;51.154;13.812;2023-01-28T06:18:20;100507.72;;;-0.70;77.84
39267;BME280;24967;51.154;13.812;2023-01-28T06:20:47;100508.63;;;-0.71;77.35
39267;BME280;24967;51.154;13.812;2023-01-28T06:23:15;100514.22;;;-0.57;77.20
39267;BME280;24967;51.154;13.812;2023-01-28T06:25:41;100519.47;;;-0.58;76.97
39267;BME280;24967;51.154;13.812;2023-01-28T06:28:07;100525.41;;;-0.53;76.33
39267;BME280;24967;51.154;13.812;2023-01-28T06:30:34;100525.41;;;-0.53;75.82
39267;BME280;24967;51.154;13.812;2023-01-28T06:33:00;100522.94;;;-0.58;75.49
39267;BME280;24967;51.154;13.812;2023-01-28T06:35:27;100522.94;;;-0.58;76.11
39267;BME280;24967;51.154;13.812;2023-01-28T06:37:53;100534.78;;;-0.48;76.38
39267;BME280;24967;51.154;13.812;2023-01-28T06:40:21;100544.66;;;-0.32;75.42
39267;BME280;24967;51.154;13.812;2023-01-28T06:42:49;100535.13;;;-0.33;74.82
39267;BME280;24967;51.154;13.812;2023-01-28T06:45:15;100541.91;;;-0.53;75.05
39267;BME280;24967;51.154;13.812;2023-01-28T06:47:41;100538.00;;;-0.41;75.14
39267;BME280;24967;51.154;13.812;2023-01-28T06:50:08;100541.78;;;-0.50;74.63
39267;BME280;24967;51.154;13.812;2023-01-28T06:52:35;100552.09;;;-0.45;74.89
39267;BME280;24967;51.154;13.812;2023-01-28T06:55:01;100550.41;;;-0.71;73.04
39267;BME280;24967;51.154;13.812;2023-01-28T06:57:29;100548.75;;;-0.74;74.25
39267;BME280;24967;51.154;13.812;2023-01-28T06:59:55;100554.34;;;-0.59;74.17
39267;BME280;24967;51.154;13.812;2023-01-28T07:02:21;100554.94;;;-0.51;73.92
39267;BME280;24967;51.154;13.812;2023-01-28T07:04:48;100556.00;;;-0.82;73.00
39267;BME280;24967;51.154;13.812;2023-01-28T07:07:14;100559.84;;;-0.92;72.86
39267;BME280;24967;51.154;13.812;2023-01-28T07:09:40;100558.69;;;-0.83;72.59
39267;BME280;24967;51.154;13.812;2023-01-28T07:12:07;100560.84;;;-0.71;72.93
39267;BME280;24967;51.154;13.812;2023-01-28T07:14:34;100562.78;;;-0.51;72.18
39267;BME280;24967;51.154;13.812;2023-01-28T07:17:02;100555.94;;;-0.55;72.90
39267;BME280;24967;51.154;13.812;2023-01-28T07:19:28;100555.44;;;-0.41;72.54
39267;BME280;24967;51.154;13.812;2023-01-28T07:21:55;100562.19;;;-0.12;71.83
39267;BME280;24967;51.154;13.812;2023-01-28T07:24:24;100559.56;;;-0.12;70.82
39267;BME280;24967;51.154;13.812;2023-01-28T07:26:51;100565.94;;;-0.19;71.29
39267;BME280;24967;51.154;13.812;2023-01-28T07:29:17;100559.03;;;-0.20;71.29
39267;BME280;24967;51.154;13.812;2023-01-28T07:31:45;100571.38;;;-0.24;71.06
39267;BME280;24967;51.154;13.812;2023-01-28T07:34:11;100557.03;;;-0.14;71.44
39267;BME280;24967;51.154;13.812;2023-01-28T07:36:37;100569.38;;;-0.17;71.02
39267;BME280;24967;51.154;13.812;2023-01-28T07:39:03;100561.28;;;0.12;71.03
39267;BME280;24967;51.154;13.812;2023-01-28T07:41:30;100567.88;;;-0.01;70.87
39267;BME280;24967;51.154;13.812;2023-01-28T07:43:56;100560.81;;;0.01;69.82
39267;BME280;24967;51.154;13.812;2023-01-28T07:46:23;100560.91;;;-0.24;70.13
39267;BME280;24967;51.154;13.812;2023-01-28T07:48:51;100556.94;;;-0.12;70.01
39267;BME280;24967;51.154;13.812;2023-01-28T07:51:17;100564.03;;;-0.14;70.21
39267;BME280;24967;51.154;13.812;2023-01-28T07:53:43;100570.59;;;-0.04;70.10
39267;BME280;24967;51.154;13.812;2023-01-28T07:56:09;100567.88;;;0.21;70.22
39267;BME280;24967;51.154;13.812;2023-01-28T07:58:36;100566.88;;;0.25;70.18
39267;BME280;24967;51.154;13.812;2023-01-28T08:01:03;100565.16;;;0.46;69.44
39267;BME280;24967;51.154;13.812;2023-01-28T08:03:29;100562.69;;;0.43;69.47
39267;BME280;24967;51.154;13.812;2023-01-28T08:05:58;100570.06;;;0.54;69.73
39267;BME280;24967;51.154;13.812;2023-01-28T08:08:24;100566.97;;;0.66;68.96
39267;BME280;24967;51.154;13.812;2023-01-28T08:10:51;100568.63;;;0.47;69.33
39267;BME280;24967;51.154;13.812;2023-01-28T08:13:18;100568.03;;;0.40;69.32
39267;BME280;24967;51.154;13.812;2023-01-28T08:15:45;100571.16;;;0.48;69.39
39267;BME280;24967;51.154;13.812;2023-01-28T08:18:12;100571.97;;;0.50;69.15
39267;BME280;24967;51.154;13.812;2023-01-28T08:20:39;100572.81;;;0.51;69.10
39267;BME280;24967;51.154;13.812;2023-01-28T08:23:09;100578.06;;;0.51;69.48
39267;BME280;24967;51.154;13.812;2023-01-28T08:25:36;100574.88;;;0.64;69.23
39267;BME280;24967;51.154;13.812;2023-01-28T08:28:03;100565.53;;;0.59;69.05
39267;BME280;24967;51.154;13.812;2023-01-28T08:30:30;100571.81;;;0.75;69.41
39267;BME280;24967;51.154;13.812;2023-01-28T08:32:56;100569.31;;;0.72;69.03
39267;BME280;24967;51.154;13.812;2023-01-28T08:35:23;100574.13;;;0.83;68.55
39267;BME280;24967;51.154;13.812;2023-01-28T08:37:49;100574.06;;;0.84;68.19
39267;BME280;24967;51.154;13.812;2023-01-28T08:40:17;100587.06;;;0.65;68.40
39267;BME280;24967;51.154;13.812;2023-01-28T08:42:45;100583.16;;;0.76;67.99
39267;BME280;24967;51.154;13.812;2023-01-28T08:45:11;100588.28;;;0.79;67.69
39267;BME280;24967;51.154;13.812;2023-01-28T08:47:45;100584.25;;;0.70;68.35
39267;BME280;24967;51.154;13.812;2023-01-28T08:50:12;100589.44;;;0.50;67.54
39267;BME280;24967;51.154;13.812;2023-01-28T08:52:38;100591.84;;;0.10;68.18
39267;BME280;24967;51.154;13.812;2023-01-28T08:55:06;100593.06;;;0.23;68.64
39267;BME280;24967;51.154;13.812;2023-01-28T08:57:34;100599.72;;;0.32;69.04
39267;BME280;24967;51.154;13.812;2023-01-28T09:00:00;100590.53;;;0.44;68.43
39267;BME280;24967;51.154;13.812;2023-01-28T09:02:26;100595.50;;;0.72;68.12
39267;BME280;24967;51.154;13.812;2023-01-28T09:04:53;100596.66;;;0.87;68.18
39267;BME280;24967;51.154;13.812;2023-01-28T09:07:19;100603.00;;;0.59;67.90
39267;BME280;24967;51.154;13.812;2023-01-28T09:09:46;100615.16;;;0.38;66.34
39267;BME280;24967;51.154;13.812;2023-01-28T09:12:12;100610.06;;;0.35;66.11
39267;BME280;24967;51.154;13.812;2023-01-28T09:14:40;100606.22;;;0.44;66.05
39267;BME280;24967;51.154;13.812;2023-01-28T09:17:06;100621.13;;;0.42;66.20
39267;BME280;24967;51.154;13.812;2023-01-28T09:19:32;100614.56;;;0.32;64.10
39267;BME280;24967;51.154;13.812;2023-01-28T09:21:59;100613.88;;;0.27;64.67
39267;BME280;24967;51.154;13.812;2023-01-28T09:24:25;100607.75;;;0.28;64.54
39267;BME280;24967;51.154;13.812;2023-01-28T09:26:51;100624.22;;;0.30;65.24
39267;BME280;24967;51.154;13.812;2023-01-28T09:29:18;100622.31;;;0.11;65.58
39267;BME280;24967;51.154;13.812;2023-01-28T09:31:46;100627.06;;;0.23;65.79
39267;BME280;24967;51.154;13.812;2023-01-28T09:34:12;100617.91;;;0.35;65.15
39267;BME280;24967;51.154;13.812;2023-01-28T09:36:38;100617.81;;;0.15;65.18
39267;BME280;24967;51.154;13.812;2023-01-28T09:39:05;100620.88;;;0.03;65.20
39267;BME280;24967;51.154;13.812;2023-01-28T09:41:35;100622.19;;;0.14;65.55
39267;BME280;24967;51.154;13.812;2023-01-28T09:44:14;100622.72;;;-0.23;65.44
39267;BME280;24967;51.154;13.812;2023-01-28T09:46:48;100625.94;;;-0.16;65.88
39267;BME280;24967;51.154;13.812;2023-01-28T09:49:17;100630.25;;;0.08;65.62
39267;BME280;24967;51.154;13.812;2023-01-28T09:51:46;100629.63;;;0.25;64.69
39267;BME280;24967;51.154;13.812;2023-01-28T09:54:16;100632.00;;;0.09;64.02
39267;BME280;24967;51.154;13.812;2023-01-28T09:56:48;100625.59;;;-0.07;64.06
39267;BME280;24967;51.154;13.812;2023-01-28T09:59:17;100632.50;;;0.19;64.67
39267;BME280;24967;51.154;13.812;2023-01-28T10:01:45;100629.56;;;0.27;64.60
39267;BME280;24967;51.154;13.812;2023-01-28T10:04:17;100625.03;;;0.32;65.00
39267;BME280;24967;51.154;13.812;2023-01-28T10:06:50;100640.75;;;0.30;65.28
39267;BME280;24967;51.154;13.812;2023-01-28T10:09:25;100633.91;;;0.28;64.43
39267;BME280;24967;51.154;13.812;2023-01-28T10:11:59;100639.63;;;0.37;63.72
39267;BME280;24967;51.154;13.812;2023-01-28T10:14:33;100631.72;;;0.39;64.28
39267;BME280;24967;51.154;13.812;2023-01-28T10:17:04;100642.84;;;0.22;64.53
39267;BME280;24967;51.154;13.812;2023-01-28T10:19:34;100637.66;;;0.20;63.79
39267;BME280;24967;51.154;13.812;2023-01-28T10:22:03;100645.38;;;0.23;64.42
39267;BME280;24967;51.154;13.812;2023-01-28T10:24:32;100633.78;;;0.31;63.88
39267;BME280;24967;51.154;13.812;2023-01-28T10:26:59;100650.91;;;0.39;63.53
39267;BME280;24967;51.154;13.812;2023-01-28T10:29:27;100654.78;;;0.51;63.64
39267;BME280;24967;51.154;13.812;2023-01-28T10:31:55;100649.97;;;0.62;63.45
39267;BME280;24967;51.154;13.812;2023-01-28T10:34:23;100651.50;;;0.46;62.80
39267;BME280;24967;51.154;13.812;2023-01-28T10:36:51;100655.16;;;0.64;63.20
39267;BME280;24967;51.154;13.812;2023-01-28T10:39:18;100659.50;;;0.19;62.82
39267;BME280;24967;51.154;13.812;2023-01-28T10:41:46;100650.41;;;0.06;63.54
39267;BME280;24967;51.154;13.812;2023-01-28T10:44:12;100655.94;;;0.20;63.58
39267;BME280;24967;51.154;13.812;2023-01-28T10:46:41;100657.84;;;0.17;63.72
39267;BME280;24967;51.154;13.812;2023-01-28T10:49:11;100661.19;;;0.20;63.46
39267;BME280;24967;51.154;13.812;2023-01-28T10:51:39;100653.66;;;0.35;63.14
39267;BME280;24967;51.154;13.812;2023-01-28T10:54:17;100656.91;;;0.18;63.42
39267;BME280;24967;51.154;13.812;2023-01-28T10:56:43;100660.28;;;0.21;63.94
39267;BME280;24967;51.154;13.812;2023-01-28T10:59:17;100668.53;;;0.34;63.95
39267;BME280;24967;51.154;13.812;2023-01-28T11:01:44;100666.16;;;0.50;63.66
39267;BME280;24967;51.154;13.812;2023-01-28T11:04:14;100659.94;;;0.31;63.08
39267;BME280;24967;51.154;13.812;2023-01-28T11:06:41;100660.78;;;0.08;64.37
39267;BME280;24967;51.154;13.812;2023-01-28T11:09:21;100661.38;;;0.39;63.74
39267;BME280;24967;51.154;13.812;2023-01-28T11:11:47;100652.13;;;0.53;63.38
39267;BME280;24967;51.154;13.812;2023-01-28T11:14:18;100656.34;;;0.33;64.41
39267;BME280;24967;51.154;13.812;2023-01-28T11:16:44;100654.16;;;0.44;64.80
39267;BME280;24967;51.154;13.812;2023-01-28T11:19:11;100648.34;;;0.14;63.69
39267;BME280;24967;51.154;13.812;2023-01-28T11:21:38;100653.84;;;0.30;62.77
39267;BME280;24967;51.154;13.812;2023-01-28T11:24:05;100653.09;;;0.27;63.66
39267;BME280;24967;51.154;13.812;2023-01-28T11:26:42;100660.59;;;0.36;64.15
39267;BME280;24967;51.154;13.812;2023-01-28T11:29:17;100656.44;;;0.54;63.68
39267;BME280;24967;51.154;13.812;2023-01-28T11:31:47;100648.66;;;0.52;63.42
39267;BME280;24967;51.154;13.812;2023-01-28T11:34:15;100648.69;;;0.73;63.46
39267;BME280;24967;51.154;13.812;2023-01-28T11:36:48;100645.78;;;0.80;63.55
39267;BME280;24967;51.154;13.812;2023-01-28T11:39:16;100640.25;;;0.88;64.26
39267;BME280;24967;51.154;13.812;2023-01-28T11:41:45;100641.66;;;0.75;64.04
39267;BME280;24967;51.154;13.812;2023-01-28T11:44:13;100631.38;;;0.70;63.15
39267;BME280;24967;51.154;13.812;2023-01-28T11:46:47;100632.09;;;0.74;62.74
39267;BME280;24967;51.154;13.812;2023-01-28T11:49:21;100630.38;;;0.73;62.52
39267;BME280;24967;51.154;13.812;2023-01-28T11:51:52;100635.72;;;0.48;62.65
39267;BME280;24967;51.154;13.812;2023-01-28T11:54:23;100627.97;;;0.46;63.09
39267;BME280;24967;51.154;13.812;2023-01-28T11:59:40;100639.16;;;0.50;63.03
39267;BME280;24967;51.154;13.812;2023-01-28T12:02:14;100632.47;;;0.64;63.20
39267;BME280;24967;51.154;13.812;2023-01-28T12:04:51;100628.00;;;0.88;62.64
39267;BME280;24967;51.154;13.812;2023-01-28T12:07:26;100629.66;;;0.91;63.67
39267;BME280;24967;51.154;13.812;2023-01-28T12:09:57;100624.41;;;0.91;62.73
39267;BME280;24967;51.154;13.812;2023-01-28T12:12:33;100624.84;;;0.80;62.81
39267;BME280;24967;51.154;13.812;2023-01-28T12:17:55;100629.16;;;0.81;62.39
39267;BME280;24967;51.154;13.812;2023-01-28T12:20:28;100615.78;;;0.67;62.31
39267;BME280;24967;51.154;13.812;2023-01-28T12:23:03;100614.06;;;0.66;63.32
39267;BME280;24967;51.154;13.812;2023-01-28T12:25:50;100619.91;;;0.73;63.66
39267;BME280;24967;51.154;13.812;2023-01-28T12:28:22;100620.44;;;0.81;64.10
39267;BME280;24967;51.154;13.812;2023-01-28T12:30:58;100623.00;;;0.60;63.25
39267;BME280;24967;51.154;13.812;2023-01-28T12:33:32;100620.91;;;0.70;62.88
39267;BME280;24967;51.154;13.812;2023-01-28T12:36:07;100599.34;;;0.85;62.94
39267;BME280;24967;51.154;13.812;2023-01-28T12:38:43;100612.31;;;0.88;61.97
39267;BME280;24967;51.154;13.812;2023-01-28T12:41:12;100602.16;;;1.01;61.97
39267;BME280;24967;51.154;13.812;2023-01-28T12:43:42;100604.44;;;0.66;61.94
39267;BME280;24967;51.154;13.812;2023-01-28T12:46:12;100598.63;;;0.82;61.70
39267;BME280;24967;51.154;13.812;2023-01-28T12:48:44;100606.19;;;0.67;61.65
39267;BME280;24967;51.154;13.812;2023-01-28T12:51:13;100605.47;;;0.84;62.37
39267;BME280;24967;51.154;13.812;2023-01-28T12:53:41;100604.09;;;0.76;61.85
39267;BME280;24967;51.154;13.812;2023-01-28T12:56:12;100604.50;;;0.87;61.90
39267;BME280;24967;51.154;13.812;2023-01-28T12:58:42;100609.34;;;0.76;62.51
39267;BME280;24967;51.154;13.812;2023-01-28T13:01:11;100610.59;;;0.65;61.63